Hauptseite
METAR-TAF:

METAR-TAF

Flughäfen :

Toblach, Italien

Breite: 46-44N, Länge: 012-13E, Höhe: 1222 m

Beobachtung

Neuester Wetterbericht von vor 2 Stunden und 4 Minuten, um 17:55 UTC
Wind 1 kt aus West/Nordwest
Temperatur -1°C
Luftfeuchtigkeit 80%
Luftdruck 1012 hPa
Sichtweite: 3000 m
Geschlossene Wolkendecke in der Höhe von 2000 ft
Schnee leicht

METAR: LIVD 221755Z 29001KT 3000 -SN OVC020 M01/M04 Q1012 RMK OVC VIS MIN 3000

Zeit: 20:59 (19:59 UTC)


TAF: fehlend

Wetterbeobachtungen und Prognosen von mehr als 4000 Flughäfen (METAR und TAF Bericht).

Die verfügbaren Stationen werden durch gelbe und rote Markierungen auf der Karte dargestellt.

Führen Sie die Maus auf sie, um den Namen der Station zu sehen.

Darauf klicken, um die Beobachtung von Wetterbeobachtungen und Prognosen zu sehen.

Um die Karte zu ändern : klicken Sie auf den grünen Tasten mit einem schwarzen Kreuz Zum Vergrößern, auf den grünen Button mit einem Gedankenstrich zu verkleinern, oder auf die grünen Pfeile für benachbarte Karten.


METAR-TAF: